KABE/ABE METAR and TAF weather

Enter ICAO airport designator
Station Type Date Time Source
KABE METAR 2021/03/08 13:51 UTC NOAA

KABE 081351Z AUTO 32007KT 10SM CLR M02/M11 A3048 RMK AO2 SLP326 T10221106


Station Type Date Time Source
KABE Decoded METAR 2021/03/08 13:51 UTC NOAA

LEHIGH VALLEY INTERNATIONAL AIRPORT, PA, United States (KABE) 40-39N 075-27W 114M
Mar 08, 2021 - 08:51 AM EST / 2021.03.08 1351 UTC
Wind: from the NW (320 degrees) at 8 MPH (7 KT):0
Visibility: 10 mile(s):0
Sky conditions: clear
Temperature: 28.0 F (-2.2 C)
Windchill: 19 F (-7 C):1
Dew Point: 12.9 F (-10.6 C)
Relative Humidity: 52%
Pressure (altimeter): 30.48 in. Hg (1032 hPa)
ob: KABE 081351Z AUTO 32007KT 10SM CLR M02/M11 A3048 RMK AO2 SLP326 T10221106
cycle: 14

Station Type Date Time Source
KABE TAF 2021/03/08 12:39 UTC NOAA

TAF KABE 081137Z 0812/0912 28005KT P6SM SKC
FM081500 30006KT P6SM SCT250
FM090600 VRB03KT P6SM SCT080
FM091000 VRB04KT P6SM SCT050

Example: see airport list